Thunder radar more information blitzortung!


Radar de pluja more information rain snow radar


Visita la nostra xarxa de llocs de meteo:

Template documentation
and downloads

And another site



No particular awareness of the weather is required.    There are no Weather-warnings

Pagina Historial Weather Underground text

Diari Resum Juny 23, 2017 Unitats:  Imperial    Mètric   Tant
« Previous Dia
SegĂźent Dia »
Diari Setmana Mensual Anual Personalitzada
  Maxima: Minima: Media:
Temperatura: 95 °F 70.2 °F 83.5 °F
Punt de rosada: 63 °F 55.2 °F 59.5 °F
Humitat: 71 % 31 % 46 %
Wind Speed: 15 mph 0 mph 5.6 mph
RĂ fegues de vent: 15 mph - -
Vent:- - SW
Pression baro: 30.1 in 30 in -
Precipitacions: 0 in    
Historical Graphs
 
 
Dades de taula per Juny 23, 2017
Temps Temperatura Punt de rosada Pression baro Vent Wind Speed RĂ fegues de vent Humitat Rainfall Rate (Hourly)
00:01 75.6 °F 55.6 °F 30.1 in SW 4 mph 4 mph 50 % 0 in
00:05 72.3 °F 58.6 °F 30.1 in West 2 mph 4 mph 62 % 0 in
00:06 75.4 °F 55.9 °F 30.1 in SSW 3.5 mph 3.5 mph 51 % 0 in
00:15 72.1 °F 58.5 °F 30.1 in WSW 2 mph 3 mph 62 % 0 in
00:25 72 °F 58.3 °F 30.1 in West 2 mph 3 mph 62 % 0 in
00:35 71.8 °F 58.1 °F 30.1 in West 1 mph 2 mph 62 % 0 in
00:45 71.6 °F 58.3 °F 30.1 in Calm   1 mph 63 % 0 in
00:55 71.1 °F 57.7 °F 30.1 in Calm     63 % 0 in
01:05 71.2 °F 57.9 °F 30.1 in WNW 1 mph 2 mph 63 % 0 in
01:15 71.1 °F 57.4 °F 30.1 in WNW 1 mph 2 mph 62 % 0 in
01:25 71.2 °F 57.6 °F 30.1 in West 2 mph 2 mph 62 % 0 in
01:35 71.6 °F 57.9 °F 30.1 in West 1 mph 3 mph 62 % 0 in
01:45 71.6 °F 58.3 °F 30.1 in West 1 mph 2 mph 63 % 0 in
01:55 71.4 °F 58.6 °F 30 in WNW 1 mph 2 mph 64 % 0 in
02:05 71.6 °F 57 °F 30.1 in NNW 1 mph 3 mph 60 % 0 in
02:15 72 °F 56.8 °F 30.1 in Calm   1 mph 59 % 0 in
02:25 72.5 °F 57.4 °F 30.1 in Calm   2 mph 59 % 0 in
02:35 73.9 °F 58.3 °F 30 in NNW 1 mph 2 mph 58 % 0 in
02:45 74.7 °F 58.8 °F 30 in Calm   2 mph 58 % 0 in
02:55 74.5 °F 58.6 °F 30.1 in WNW 1 mph 2 mph 58 % 0 in
03:05 74.8 °F 59.2 °F 30.1 in West 1 mph 3 mph 58 % 0 in
03:15 75.2 °F 59.9 °F 30.1 in WSW 2 mph 2 mph 59 % 0 in
03:25 75.4 °F 60.1 °F 30.1 in West 2 mph 4 mph 59 % 0 in
03:35 76.1 °F 61.2 °F 30.1 in WSW 1 mph 3 mph 60 % 0 in
03:45 76.5 °F 61.5 °F 30.1 in SW 2 mph 3 mph 60 % 0 in
03:55 77 °F 61.5 °F 30.1 in WSW 2 mph 3 mph 59 % 0 in
04:05 77.7 °F 61.9 °F 30.1 in WSW 3 mph 3 mph 58 % 0 in
04:15 78.1 °F 61.5 °F 30.1 in WSW 3 mph 4 mph 57 % 0 in
04:25 78.8 °F 61.3 °F 30.1 in WSW 3 mph 6 mph 55 % 0 in
04:35 79.9 °F 62.2 °F 30.1 in WSW 2 mph 4 mph 55 % 0 in
04:45 80.6 °F 61.9 °F 30.1 in WSW 3 mph 3 mph 53 % 0 in
04:55 81.3 °F 62.1 °F 30.1 in WSW 2 mph 4 mph 52 % 0 in
05:05 82.2 °F 62.2 °F 30.1 in WSW 2 mph 4 mph 51 % 0 in
05:15 82.6 °F 62.1 °F 30.1 in WSW 2 mph 4 mph 50 % 0 in
05:25 83.7 °F 62.4 °F 30.1 in WSW 2 mph 4 mph 49 % 0 in
10:36 85.6 °F 61.9 °F 30.1 in SW 4.9 mph 4.9 mph 45 % 0 in
10:41 86.2 °F 61.7 °F 30.1 in SSW 3.5 mph 3.5 mph 44 % 0 in
10:46 86.5 °F 61.3 °F 30.1 in South 5.8 mph 5.8 mph 43 % 0 in
10:51 86.7 °F 61 °F 30.1 in West 4.6 mph 4.6 mph 42 % 0 in
10:56 87.4 °F 61.5 °F 30.1 in SW 4.6 mph 4.6 mph 42 % 0 in
11:01 87.8 °F 61.2 °F 30.1 in SW 4.6 mph 4.6 mph 41 % 0 in
11:06 88.7 °F 62.1 °F 30.1 in South 4.6 mph 4.6 mph 41 % 0 in
11:11 88.7 °F 61.3 °F 30.1 in SE 5.8 mph 5.8 mph 40 % 0 in
11:16 88.9 °F 62.1 °F 30.1 in WSW 5.8 mph 5.8 mph 41 % 0 in
11:21 89.1 °F 61.5 °F 30.1 in SSW 6.9 mph 6.9 mph 40 % 0 in
11:26 90 °F 62.4 °F 30.1 in WSW 3.6 mph 3.6 mph 40 % 0 in
11:31 89.6 °F 61.3 °F 30.1 in SW 8.1 mph 8.1 mph 39 % 0 in
11:36 90 °F 61 °F 30.1 in WSW 3.5 mph 3.5 mph 38 % 0 in
11:41 90.1 °F 60.4 °F 30.1 in SW 6.2 mph 6.2 mph 37 % 0 in
11:46 89.8 °F 59.4 °F 30.1 in West 8.1 mph 8.1 mph 36 % 0 in
11:51 89.8 °F 60.1 °F 30.1 in SW 7.6 mph 7.6 mph 37 % 0 in
11:56 90.1 °F 60.4 °F 30.1 in South 8.1 mph 8.1 mph 37 % 0 in
12:01 91.4 °F 60.6 °F 30.1 in WSW 4.6 mph 4.6 mph 36 % 0 in
12:06 91.9 °F 61.2 °F 30.1 in East 5.8 mph 5.8 mph 36 % 0 in
12:11 92.1 °F 61.3 °F 30.1 in SW 5.8 mph 5.8 mph 36 % 0 in
12:16 92.7 °F 61.9 °F 30 in WSW 4.6 mph 4.6 mph 36 % 0 in
12:21 92.1 °F 60.4 °F 30 in SW 5.8 mph 5.8 mph 35 % 0 in
12:26 91.9 °F 59.5 °F 30 in SW 6.9 mph 6.9 mph 34 % 0 in
12:31 92.3 °F 60.6 °F 30.1 in WSW 6.9 mph 6.9 mph 35 % 0 in
12:36 93.7 °F 62.1 °F 30.1 in SW 3.5 mph 3.5 mph 35 % 0 in
12:41 93.7 °F 61.2 °F 30.1 in SW 6.9 mph 6.9 mph 34 % 0 in
12:46 93 °F 60.4 °F 30.1 in SSW 10.4 mph 10.4 mph 34 % 0 in
12:51 92.7 °F 60.3 °F 30.1 in WSW 11.5 mph 11.5 mph 34 % 0 in
12:56 93 °F 60.4 °F 30.1 in South 9.2 mph 9.2 mph 34 % 0 in
13:01 93.7 °F 61.2 °F 30.1 in WSW 5.8 mph 5.8 mph 34 % 0 in
13:06 93.2 °F 60.6 °F 30.1 in SSE 12.7 mph 12.7 mph 34 % 0 in
13:11 94.1 °F 61.3 °F 30.1 in SW 5.8 mph 5.8 mph 34 % 0 in
13:16 94.1 °F 60.6 °F 30.1 in WSW 5.8 mph 5.8 mph 33 % 0 in
13:21 93.7 °F 59.4 °F 30.1 in SSW 9.2 mph 9.2 mph 32 % 0 in
13:26 93.7 °F 58.5 °F 30.1 in SW 5.8 mph 5.8 mph 31 % 0 in
13:31 94.3 °F 59.9 °F 30.1 in SW 6.9 mph 6.9 mph 32 % 0 in
13:36 94.5 °F 59.2 °F 30.1 in SW 8.1 mph 8.1 mph 31 % 0 in
13:41 94.5 °F 59.2 °F 30.1 in SW 5.8 mph 5.8 mph 31 % 0 in
13:46 94.5 °F 59.2 °F 30.1 in SSW 5.8 mph 5.8 mph 31 % 0 in
13:51 94.5 °F 59.2 °F 30.1 in WSW 6.2 mph 6.2 mph 31 % 0 in
13:56 93.9 °F 58.6 °F 30.1 in SSW 9.2 mph 9.2 mph 31 % 0 in
14:01 94.1 °F 58.8 °F 30.1 in WSW 9.7 mph 9.7 mph 31 % 0 in
14:06 94.6 °F 59.4 °F 30.1 in West 6.9 mph 6.9 mph 31 % 0 in
14:11 94.5 °F 59.2 °F 30.1 in SSW 7.8 mph 7.8 mph 31 % 0 in
14:16 94.8 °F 59.5 °F 30.1 in SW 5.8 mph 5.8 mph 31 % 0 in
14:21 94.1 °F 58.8 °F 30.1 in SSW 8.1 mph 8.1 mph 31 % 0 in
14:26 94.5 °F 60.1 °F 30.1 in West 6.9 mph 6.9 mph 32 % 0 in
14:31 94.5 °F 60.1 °F 30 in SSW 5.8 mph 5.8 mph 32 % 0 in
14:36 95 °F 59.5 °F 30 in West 8.7 mph 8.7 mph 31 % 0 in
14:39 94.1 °F 59.7 °F 30 in SW 6.9 mph 6.9 mph 32 % 0 in
14:44 94.6 °F 61.2 °F 30 in SW 6.9 mph 6.9 mph 33 % 0 in
14:49 94.5 °F 61 °F 30 in West 8.1 mph 8.1 mph 33 % 0 in
14:54 94.8 °F 61.2 °F 30 in West 9.2 mph 9.2 mph 33 % 0 in
14:59 94.3 °F 61.5 °F 30 in SW 11.5 mph 11.5 mph 34 % 0 in
15:04 93.6 °F 61.9 °F 30 in WSW 12.7 mph 12.7 mph 35 % 0 in
15:09 93.4 °F 61.5 °F 30 in SW 10 mph 10 mph 35 % 0 in
15:14 93.2 °F 62.2 °F 30 in SW 10.4 mph 10.4 mph 36 % 0 in
15:19 92.8 °F 62.1 °F 30 in WSW 10.4 mph 10.4 mph 36 % 0 in
15:24 92.3 °F 61.5 °F 30 in SSW 11.5 mph 11.5 mph 36 % 0 in
15:29 93 °F 62.1 °F 30 in South 7.6 mph 7.6 mph 36 % 0 in
15:34 92.8 °F 62.1 °F 30 in SSW 8.1 mph 8.1 mph 36 % 0 in
15:39 92.8 °F 62.1 °F 30 in West 11.5 mph 11.5 mph 36 % 0 in
15:44 92.3 °F 60.6 °F 30 in West 10.4 mph 10.4 mph 35 % 0 in
15:49 92.7 °F 61 °F 30 in West 9.2 mph 9.2 mph 35 % 0 in
15:54 92.3 °F 60.6 °F 30 in SW 12.7 mph 12.7 mph 35 % 0 in
15:59 92.8 °F 62.1 °F 30 in SW 7.8 mph 7.8 mph 36 % 0 in
16:04 92.3 °F 60.6 °F 30 in SW 13 mph 13 mph 35 % 0 in
16:09 91.4 °F 60.6 °F 30 in SSW 12.7 mph 12.7 mph 36 % 0 in
16:14 91.8 °F 61 °F 30 in SW 12.7 mph 12.7 mph 36 % 0 in
16:19 91.9 °F 61.2 °F 30 in SW 10 mph 10 mph 36 % 0 in
16:24 91 °F 61.2 °F 30 in WSW 10.7 mph 10.7 mph 37 % 0 in
16:29 91.9 °F 61.9 °F 30 in SW 10.9 mph 10.9 mph 37 % 0 in
16:34 91.6 °F 61.5 °F 30 in South 10.4 mph 10.4 mph 37 % 0 in
16:39 91 °F 61.9 °F 30 in West 8.1 mph 8.1 mph 38 % 0 in
16:44 90.9 °F 62.4 °F 30 in WSW 11.5 mph 11.5 mph 39 % 0 in
16:49 90.7 °F 62.2 °F 30 in WSW 8.1 mph 8.1 mph 39 % 0 in
16:54 90.7 °F 62.2 °F 30 in SSW 12.7 mph 12.7 mph 39 % 0 in
16:59 90.7 °F 63 °F 30 in SW 9.2 mph 9.2 mph 40 % 0 in
17:09 90.1 °F 62.6 °F 30 in WSW 9.2 mph 9.2 mph 40 % 0 in
17:14 90.1 °F 61.9 °F 30 in SW 13.8 mph 13.8 mph 39 % 0 in
17:19 90.3 °F 62.1 °F 30 in SW 9.2 mph 9.2 mph 39 % 0 in
17:24 90.3 °F 62.1 °F 30 in SSW 10.4 mph 10.4 mph 39 % 0 in
17:29 90.1 °F 61.9 °F 30 in SSW 10.5 mph 10.5 mph 39 % 0 in
17:34 89.8 °F 61.5 °F 30 in SW 10.4 mph 10.4 mph 39 % 0 in
17:39 90 °F 61.7 °F 30 in West 8.1 mph 8.1 mph 39 % 0 in
17:44 89.4 °F 61.2 °F 30 in WSW 11.5 mph 11.5 mph 39 % 0 in
17:49 89.1 °F 60.1 °F 30 in WSW 8.1 mph 8.1 mph 38 % 0 in
17:54 88.3 °F 60.3 °F 30 in SW 15 mph 15 mph 39 % 0 in
17:59 88.5 °F 60.4 °F 30 in South 9.2 mph 9.2 mph 39 % 0 in
18:04 88.5 °F 60.4 °F 30 in SW 12.3 mph 12.3 mph 39 % 0 in
18:09 88.3 °F 60.3 °F 30 in WSW 12.3 mph 12.3 mph 39 % 0 in
18:14 87.6 °F 60.3 °F 30 in SW 8.1 mph 8.1 mph 40 % 0 in
18:19 87.8 °F 60.4 °F 30 in SW 10.4 mph 10.4 mph 40 % 0 in
18:24 87.6 °F 61 °F 30 in SSW 5.8 mph 5.8 mph 41 % 0 in
18:29 88.2 °F 60.8 °F 30 in SSW 9.8 mph 9.8 mph 40 % 0 in
18:34 88 °F 60.6 °F 30 in SW 11.5 mph 11.5 mph 40 % 0 in
18:36 87.8 °F 60.4 °F 30 in WSW 9.2 mph 9.2 mph 40 % 0 in
18:41 87.8 °F 60.4 °F 30 in SSW 12.1 mph 12.1 mph 40 % 0 in
18:46 87.3 °F 60.1 °F 30 in South 12.5 mph 12.5 mph 40 % 0 in
18:51 87.1 °F 59.7 °F 30 in SSW 9.2 mph 9.2 mph 40 % 0 in
18:56 87.3 °F 60.1 °F 30 in WSW 9.2 mph 9.2 mph 40 % 0 in
19:01 86.9 °F 59.7 °F 30 in SW 10.4 mph 10.4 mph 40 % 0 in
19:06 86.9 °F 60.4 °F 30 in WSW 6.2 mph 6.2 mph 41 % 0 in
19:11 86.7 °F 60.3 °F 30 in SW 5.8 mph 5.8 mph 41 % 0 in
19:16 86.5 °F 60.1 °F 30 in SW 7.8 mph 7.8 mph 41 % 0 in
19:21 86.2 °F 59 °F 30 in SW 10.4 mph 10.4 mph 40 % 0 in
19:25 74.8 °F 58.6 °F 30.1 in WSW 2 mph 2 mph 57 % 0 in
19:26 85.8 °F 59.4 °F 30 in West 10.4 mph 10.4 mph 41 % 0 in
19:31 85.5 °F 59.2 °F 30 in WSW 12.7 mph 12.7 mph 41 % 0 in
19:35 74.5 °F 58.6 °F 30.1 in SW 2 mph 3 mph 58 % 0 in
19:36 85.3 °F 58.8 °F 30 in SSW 8.1 mph 8.1 mph 41 % 0 in
19:41 84.9 °F 58.6 °F 30 in SW 10.4 mph 10.4 mph 41 % 0 in
19:45 74.1 °F 58.8 °F 30.1 in WSW 2 mph 2 mph 59 % 0 in
19:46 84.7 °F 58.5 °F 30 in SSW 8.1 mph 8.1 mph 41 % 0 in
19:51 84.6 °F 58.8 °F 30 in South 8.1 mph 8.1 mph 42 % 0 in
19:55 73.9 °F 59.2 °F 30.1 in SW 2 mph 2 mph 60 % 0 in
19:56 84.2 °F 58.6 °F 30 in SW 6.9 mph 6.9 mph 42 % 0 in
20:01 84.2 °F 59.4 °F 30 in SW 5.9 mph 5.9 mph 43 % 0 in
20:05 73.9 °F 59.2 °F 30.1 in WSW 2 mph 3 mph 60 % 0 in
20:06 83.8 °F 59.5 °F 30 in SW 3.5 mph 3.5 mph 44 % 0 in
20:11 83.8 °F 59 °F 30 in West 6.9 mph 6.9 mph 43 % 0 in
20:15 73.8 °F 59.5 °F 30.1 in West 1 mph 2 mph 61 % 0 in
20:16 83.5 °F 58.6 °F 30 in WSW 9.2 mph 9.2 mph 43 % 0 in
20:21 83.3 °F 58.5 °F 30 in SSW 5.8 mph 5.8 mph 43 % 0 in
20:25 73.6 °F 59.4 °F 30.1 in WSW 2 mph 2 mph 61 % 0 in
20:26 82.9 °F 57.6 °F 30 in SSW 5.8 mph 5.8 mph 42 % 0 in
20:31 82.8 °F 57.4 °F 30 in SW 3.5 mph 3.5 mph 42 % 0 in
20:35 73.4 °F 59.5 °F 30 in West 1 mph 2 mph 62 % 0 in
20:36 82.6 °F 57.2 °F 30 in South 4.6 mph 4.6 mph 42 % 0 in
20:41 82.4 °F 57 °F 30 in WNW 4.6 mph 4.6 mph 42 % 0 in
20:45 73.4 °F 59.5 °F 30 in West 1 mph 2 mph 62 % 0 in
20:46 82 °F 55.9 °F 30 in South 5.8 mph 5.8 mph 41 % 0 in
20:51 81.9 °F 55.9 °F 30 in SW 3.5 mph 3.5 mph 41 % 0 in
20:55 73.4 °F 59.5 °F 30.1 in West 1 mph 2 mph 62 % 0 in
20:56 81.7 °F 55.8 °F 30 in SW 3.5 mph 3.5 mph 41 % 0 in
21:01 81.5 °F 55.6 °F 30 in SW 4.6 mph 4.6 mph 41 % 0 in
21:05 73.4 °F 59.5 °F 30.1 in West 2 mph 2 mph 62 % 0 in
21:06 81.1 °F 55.2 °F 30 in WSW 6.9 mph 6.9 mph 41 % 0 in
21:11 80.8 °F 55.6 °F 30 in WSW 12.7 mph 12.7 mph 42 % 0 in
21:15 73.2 °F 59.4 °F 30.1 in West 2 mph 2 mph 62 % 0 in
21:16 80.6 °F 55.4 °F 30 in SW 5.8 mph 5.8 mph 42 % 0 in
21:21 80.4 °F 55.9 °F 30 in SW 5.8 mph 5.8 mph 43 % 0 in
21:25 73.2 °F 59.9 °F 30.1 in West 1 mph 4 mph 63 % 0 in
21:26 80.1 °F 56.1 °F 30 in SW 5.8 mph 5.8 mph 44 % 0 in
21:31 79.7 °F 55.9 °F 30 in SW 3.8 mph 3.8 mph 44 % 0 in
21:35 73 °F 59.7 °F 30.1 in West 1 mph 3 mph 63 % 0 in
21:36 79.5 °F 56.3 °F 30 in SW 5.8 mph 5.8 mph 45 % 0 in
21:41 79.3 °F 56.1 °F 30 in WSW 4.9 mph 4.9 mph 45 % 0 in
21:45 73 °F 60.1 °F 30.1 in West 2 mph 3 mph 64 % 0 in
21:46 79 °F 55.8 °F 30 in SW 4.6 mph 4.6 mph 45 % 0 in
21:51 78.8 °F 56.3 °F 30 in SW 4.6 mph 4.6 mph 46 % 0 in
21:55 73 °F 60.1 °F 30.1 in WSW 2 mph 3 mph 64 % 0 in
21:56 78.6 °F 56.1 °F 30 in East 5.8 mph 5.8 mph 46 % 0 in
22:01 78.4 °F 56.5 °F 30 in West 3.6 mph 3.6 mph 47 % 0 in
22:05 72.9 °F 60.4 °F 30.1 in WSW 1 mph 2 mph 65 % 0 in
22:06 78.3 °F 56.5 °F 30 in WSW 2.3 mph 2.3 mph 47 % 0 in
22:11 78.1 °F 56.8 °F 30 in SSW 2.3 mph 2.3 mph 48 % 0 in
22:15 72.7 °F 60.3 °F 30.1 in Calm   2 mph 65 % 0 in
22:16 77.7 °F 56.5 °F 30 in WSW 3.5 mph 3.5 mph 48 % 0 in
22:21 77.5 °F 56.8 °F 30 in SW 4.6 mph 4.6 mph 49 % 0 in
22:25 72.3 °F 60.3 °F 30.1 in Calm   1 mph 66 % 0 in
22:26 77.5 °F 56.8 °F 30 in WSW 2.3 mph 2.3 mph 49 % 0 in
22:31 77.2 °F 57 °F 30 in WSW 5.8 mph 5.8 mph 50 % 0 in
22:35 71.8 °F 59.7 °F 30.1 in Calm     66 % 0 in
22:36 77.2 °F 57 °F 30 in SW 3.5 mph 3.5 mph 50 % 0 in
22:41 77 °F 57.6 °F 30 in SW 4.6 mph 4.6 mph 51 % 0 in
22:45 71.4 °F 60.3 °F 30.1 in Calm     68 % 0 in
22:46 76.8 °F 57.9 °F 30 in SW 2.3 mph 2.3 mph 52 % 0 in
22:51 76.8 °F 57.9 °F 30 in SW 2.3 mph 2.3 mph 52 % 0 in
22:55 71.1 °F 60.4 °F 30.1 in Calm     69 % 0 in
22:56 76.6 °F 57.7 °F 30 in SW 2.4 mph 2.4 mph 52 % 0 in
23:01 76.5 °F 58.1 °F 30.1 in SW 3.5 mph 3.5 mph 53 % 0 in
23:02 76.5 °F 58.1 °F 30.1 in SW 3.5 mph 3.5 mph 53 % 0 in
23:05 70.9 °F 60.3 °F 30.1 in Calm     69 % 0 in
23:07 76.3 °F 57.9 °F 30.1 in West 2.3 mph 2.3 mph 53 % 0 in
23:12 76.3 °F 57.9 °F 30.1 in WSW 2.3 mph 2.3 mph 53 % 0 in
23:15 70.7 °F 60.1 °F 30.1 in Calm     69 % 0 in
23:17 76.1 °F 57.7 °F 30.1 in West 3.5 mph 3.5 mph 53 % 0 in
23:22 75.9 °F 57.6 °F 30.1 in WSW 3.5 mph 3.5 mph 53 % 0 in
23:25 70.5 °F 60.3 °F 30 in SW 1 mph 1 mph 70 % 0 in
23:27 75.7 °F 57.4 °F 30.1 in West 2.3 mph 2.4 mph 53 % 0 in
23:32 75.7 °F 57.9 °F 30.1 in WSW 2.3 mph 2.3 mph 54 % 0 in
23:35 70.3 °F 60.4 °F 30 in Calm   2 mph 71 % 0 in
23:37 75.7 °F 57.9 °F 30.1 in WSW 3.5 mph 3.5 mph 54 % 0 in
23:42 75.6 °F 57.7 °F 30.1 in WNW 3.5 mph 3.5 mph 54 % 0 in
23:45 70.2 °F 60.3 °F 30 in Calm     71 % 0 in
23:47 75.6 °F 57.7 °F 30.1 in SW 2.3 mph 2.3 mph 54 % 0 in
23:52 75.4 °F 57.6 °F 30.1 in West 2.3 mph 2.3 mph 54 % 0 in
23:55 70.2 °F 60.3 °F 30 in WSW 1 mph 1 mph 71 % 0 in
23:57 75.2 °F 57.4 °F 30.1 in West 2.3 mph 2.3 mph 54 % 0 in
Meteo Sesrovires
Elogis d' Weather Underground - 3.75 mb

Guio original per  Jim McMurry - jmcmurry@mwt.net Adaptat per a la plantilla per  Wim van der Kuil - Leuven-Template.eu

Trobareu la nostra informacio del temps tambe a:

Weather Underground

AWEKAS